Main page
METAR-TAF:

METAR-TAF

Airports :

Clermont-Ferrand Auvergne Airport

Clermont-Ferrand, France

latitude: 45-47N, longitude: 003-10E, elevation: 332 m

Current weather observation

The report was made 21 minutes ago, at 20:30 UTC
Wind 7 kt from the Northwest, varying between West and North
Temperature 1°C
Humidity 75%
Pressure 1034 hPa
Visibility 10 km or more
no clouds below 1500 m and no cumulonimbus

METAR: LFLC 212030Z AUTO 32007KT 280V350 CAVOK 01/M03 Q1034 NOSIG

Time: 21:51 (20:51 UTC)

Forecast

The report was made 3 hours and 51 minutes ago, at 17:00 UTC
Forecast valid from 21 at 18 UTC to 22 at 18 UTC
Wind 8 kt from the North
Visibility 10 km or more
Few clouds at a height of 4000 ft
Temporary
from 22 at 02 UTC to 22 at 12 UTC
Broken clouds at a height of 1300 ft
Probability 30% :
Temporary
from 22 at 05 UTC to 22 at 10 UTC
Visibility: 0800 m
Broken clouds at a height of 300 ft
fog

TAF: LFLC 211700Z 2118/2218 36008KT 9999 FEW040 TEMPO 2202/2212 BKN013 PROB30 TEMPO 2205/2210 0800 FG BKN003

Weather observations and forecasts of more than 4000 airports (METAR and TAF reports).

The available stations are represented by yellow and red dots on the map.

Hover mouse over dot to see the name of the station.

Then click to see weather observations and forecasts.

To change the map : click on the green buttons with a black cross to zoom in, on the green button with a dash to zoom out, or on the green arrows for adjacent maps.


METAR-TAF: